createdAt,value
2024-02-24T00:04:23.206Z,40.02
2024-02-24T00:09:28.302Z,40.63
2024-02-24T00:14:32.393Z,41.26
2024-02-24T00:19:36.064Z,41.38
2024-02-24T00:24:41.091Z,40.75
2024-02-24T00:29:44.882Z,40.16
2024-02-24T00:34:48.586Z,40.69
2024-02-24T00:39:53.950Z,40.20
2024-02-24T00:44:57.553Z,40.00
2024-02-24T00:50:01.298Z,39.88
2024-02-24T00:55:06.831Z,40.25
2024-02-24T01:00:11.906Z,40.43
2024-02-24T01:05:15.585Z,41.36
2024-02-24T01:10:20.663Z,41.51
2024-02-24T01:15:25.678Z,41.53
2024-02-24T01:20:30.444Z,41.29
2024-02-24T01:25:35.995Z,41.46
2024-02-24T01:30:39.612Z,41.49
2024-02-24T01:35:43.410Z,41.31
2024-02-24T01:40:48.436Z,41.17
2024-02-24T01:45:52.823Z,41.32
2024-02-24T01:50:56.799Z,41.15
2024-02-24T01:56:03.376Z,41.45
2024-02-24T02:01:08.271Z,41.65
2024-02-24T02:06:12.420Z,41.30
2024-02-24T02:11:17.822Z,41.29
2024-02-24T02:16:21.777Z,41.72
2024-02-24T02:21:26.400Z,41.79
2024-02-24T02:26:31.721Z,41.79
2024-02-24T02:31:35.588Z,41.98
2024-02-24T02:36:39.293Z,41.55
2024-02-24T02:41:44.495Z,41.80
2024-02-24T02:46:49.185Z,40.93
2024-02-24T02:51:52.836Z,40.87
2024-02-24T02:56:57.844Z,41.43
2024-02-24T03:02:01.450Z,41.70
2024-02-24T03:07:05.575Z,41.60
2024-02-24T03:12:10.975Z,41.70
2024-02-24T03:17:14.943Z,42.17
2024-02-24T03:22:18.738Z,41.68
2024-02-24T03:27:23.795Z,41.83
2024-02-24T03:32:28.072Z,41.79
2024-02-24T03:37:31.820Z,41.72
2024-02-24T03:42:37.287Z,42.39
2024-02-24T03:47:41.546Z,42.50
2024-02-24T03:52:47.087Z,42.72
2024-02-24T03:57:52.292Z,42.55
2024-02-24T04:02:55.857Z,42.94
2024-02-24T04:07:59.508Z,43.05
2024-02-24T04:13:04.771Z,43.00
2024-02-24T04:18:09.584Z,42.95
2024-02-24T04:23:13.871Z,42.92
2024-02-24T04:28:21.965Z,43.40
2024-02-24T04:33:26.524Z,43.38
2024-02-24T04:38:30.797Z,42.83
2024-02-24T04:43:37.224Z,42.37
2024-02-24T04:48:41.272Z,43.36
2024-02-24T04:53:45.360Z,42.44
2024-02-24T04:58:50.363Z,44.71
2024-02-24T05:03:55.054Z,42.99
2024-02-24T05:08:59.165Z,43.35
2024-02-24T05:14:04.565Z,42.84
2024-02-24T05:19:08.548Z,43.87
2024-02-24T05:24:12.301Z,42.27
2024-02-24T05:29:17.715Z,42.15
2024-02-24T05:34:21.598Z,41.98
2024-02-24T05:39:25.638Z,42.77
2024-02-24T05:44:31.103Z,41.94
2024-02-24T05:49:34.893Z,42.65
2024-02-24T05:54:41.290Z,42.63
2024-02-24T05:59:46.809Z,42.56
2024-02-24T06:04:50.497Z,42.51
2024-02-24T06:09:54.160Z,44.29
2024-02-24T06:14:59.162Z,43.92
2024-02-24T06:20:03.003Z,44.55
2024-02-24T06:25:07.425Z,45.55
2024-02-24T06:30:14.002Z,45.51
2024-02-24T06:35:17.708Z,45.77
2024-02-24T06:40:29.583Z,45.23
2024-02-24T06:45:42.194Z,45.32
2024-02-24T06:50:46.005Z,44.32
2024-02-24T06:55:49.665Z,46.40
2024-02-24T07:00:54.707Z,45.89
2024-02-24T07:05:58.472Z,46.18
2024-02-24T07:11:02.366Z,45.72
2024-02-24T07:16:08.588Z,45.39
2024-02-24T07:21:12.545Z,43.46
2024-02-24T07:26:16.425Z,42.68
2024-02-24T07:31:21.493Z,43.22
2024-02-24T07:36:26.268Z,42.40
2024-02-24T07:41:29.983Z,42.80
2024-02-24T07:46:35.153Z,43.18
2024-02-24T07:51:40.091Z,43.66
2024-02-24T07:56:43.893Z,43.81
2024-02-24T08:01:48.962Z,43.00
2024-02-24T08:06:52.641Z,43.90
2024-02-24T08:11:56.553Z,41.84
2024-02-24T08:17:01.769Z,41.91
2024-02-24T08:22:05.542Z,42.64
2024-02-24T08:27:09.331Z,40.97
2024-02-24T08:32:14.411Z,39.76
2024-02-24T08:37:18.010Z,39.91
2024-02-24T08:42:21.723Z,41.14
2024-02-24T08:47:26.873Z,40.28
2024-02-24T08:52:38.034Z,39.72
2024-02-24T08:57:46.766Z,39.73
2024-02-24T09:02:51.902Z,39.96
2024-02-24T09:07:55.617Z,41.43
2024-02-24T09:12:59.548Z,40.61
2024-02-24T09:18:08.241Z,40.99
2024-02-24T09:23:12.096Z,39.30
2024-02-24T09:28:15.736Z,39.36
2024-02-24T09:33:21.288Z,38.99
2024-02-24T09:38:25.430Z,37.86
2024-02-24T09:43:29.158Z,36.41
2024-02-24T09:48:34.479Z,35.70
2024-02-24T09:53:38.785Z,35.96
2024-02-24T09:58:43.013Z,35.83
2024-02-24T10:03:50.150Z,34.39
2024-02-24T10:08:54.466Z,33.83
2024-02-24T10:13:58.175Z,34.70
2024-02-24T10:19:05.820Z,35.59
2024-02-24T10:24:09.619Z,35.73
2024-02-24T10:29:13.631Z,37.13
2024-02-24T10:34:19.142Z,34.87
2024-02-24T10:39:22.997Z,36.41
2024-02-24T10:44:26.930Z,37.33
2024-02-24T10:49:32.393Z,34.92
2024-02-24T10:54:38.878Z,34.97
2024-02-24T10:59:42.674Z,34.93
2024-02-24T11:04:48.116Z,34.84
2024-02-24T11:09:54.404Z,34.76
2024-02-24T11:14:58.733Z,33.62
2024-02-24T11:20:04.608Z,34.70
2024-02-24T11:25:08.512Z,34.32
2024-02-24T11:30:44.637Z,36.15
2024-02-24T11:35:50.280Z,35.96
2024-02-24T11:40:54.344Z,34.00
2024-02-24T11:45:58.041Z,34.88
2024-02-24T11:51:03.020Z,36.24
2024-02-24T11:56:08.123Z,35.69
2024-02-24T12:01:14.686Z,35.46
2024-02-24T12:06:20.599Z,35.84
2024-02-24T12:11:24.456Z,36.53
2024-02-24T12:16:29.107Z,37.34
2024-02-24T12:21:34.183Z,36.65
2024-02-24T12:26:37.860Z,37.55
2024-02-24T12:31:42.443Z,39.97
2024-02-24T12:36:47.743Z,39.65
2024-02-24T12:41:52.237Z,41.24
2024-02-24T12:46:55.935Z,40.75
2024-02-24T12:52:00.996Z,40.68
2024-02-24T12:57:05.087Z,40.72
2024-02-24T13:02:08.905Z,40.70
2024-02-24T13:07:13.976Z,40.48
2024-02-24T13:12:17.839Z,39.43
2024-02-24T13:17:22.641Z,41.15
2024-02-24T13:22:27.851Z,39.27
2024-02-24T13:27:31.456Z,38.38
2024-02-24T13:32:35.500Z,38.36
2024-02-24T13:37:40.577Z,38.56
2024-02-24T13:42:44.252Z,38.64
2024-02-24T13:47:51.020Z,38.94
2024-02-24T13:52:58.927Z,38.64
2024-02-24T13:58:04.228Z,39.99
2024-02-24T14:03:09.844Z,38.73
2024-02-24T14:08:15.043Z,36.50
2024-02-24T14:13:18.743Z,37.84
2024-02-24T14:18:22.520Z,36.94
2024-02-24T14:23:27.740Z,37.88
2024-02-24T14:28:31.494Z,38.18
2024-02-24T14:33:35.481Z,41.53
2024-02-24T14:38:40.684Z,42.55
2024-02-24T14:43:44.566Z,43.50
2024-02-24T14:48:50.049Z,40.54
2024-02-24T14:53:55.303Z,40.58
2024-02-24T14:58:58.974Z,39.71
2024-02-24T15:04:02.688Z,40.40
2024-02-24T15:09:09.573Z,38.83
2024-02-24T15:14:13.369Z,39.71
2024-02-24T15:19:17.584Z,38.49
2024-02-24T15:24:22.658Z,38.38
2024-02-24T15:29:26.389Z,37.96
2024-02-24T15:34:30.257Z,37.20
2024-02-24T15:39:35.331Z,37.51
2024-02-24T15:44:38.978Z,37.49
2024-02-24T15:49:42.932Z,38.48
2024-02-24T15:54:48.179Z,37.07
2024-02-24T15:59:51.826Z,37.65
2024-02-24T16:04:55.869Z,39.30
2024-02-24T16:10:00.975Z,40.09
2024-02-24T16:15:04.941Z,41.96
2024-02-24T16:20:09.784Z,40.39
2024-02-24T16:25:17.229Z,39.67
2024-02-24T16:30:22.472Z,40.52
2024-02-24T16:35:27.765Z,38.84
2024-02-24T16:40:32.946Z,38.47
2024-02-24T16:45:37.218Z,38.73
2024-02-24T16:50:41.408Z,39.26
2024-02-24T16:55:47.842Z,39.12
2024-02-24T17:00:51.928Z,39.31
2024-02-24T17:05:55.968Z,38.52
2024-02-24T17:11:01.182Z,38.92
2024-02-24T17:16:06.302Z,38.43
2024-02-24T17:21:10.491Z,38.65
2024-02-24T17:26:18.488Z,38.79
2024-02-24T17:31:22.357Z,38.61
2024-02-24T17:36:26.039Z,38.40
2024-02-24T17:41:31.174Z,38.63
2024-02-24T17:46:37.957Z,39.11
2024-02-24T17:51:42.715Z,39.13
2024-02-24T17:56:47.851Z,39.03
2024-02-24T18:01:51.662Z,39.14
2024-02-24T18:06:55.518Z,38.83
2024-02-24T18:12:01.572Z,38.98
2024-02-24T18:17:05.533Z,38.44
2024-02-24T18:22:09.111Z,38.04
2024-02-24T18:27:14.346Z,38.37
2024-02-24T18:32:18.062Z,37.94
2024-02-24T18:37:21.890Z,38.22
2024-02-24T18:42:27.169Z,38.65
2024-02-24T18:47:30.847Z,38.31
2024-02-24T18:52:34.830Z,39.38
2024-02-24T18:57:39.844Z,38.99
2024-02-24T19:02:43.950Z,38.93
2024-02-24T19:07:51.164Z,38.72
2024-02-24T19:12:56.507Z,38.21
2024-02-24T19:18:00.293Z,38.29
2024-02-24T19:23:04.753Z,39.01
2024-02-24T19:28:09.721Z,38.25
2024-02-24T19:33:13.480Z,38.06
2024-02-24T19:38:17.256Z,38.63
2024-02-24T19:43:22.425Z,37.83
2024-02-24T19:48:26.258Z,38.58
2024-02-24T19:53:30.198Z,37.72
2024-02-24T19:58:39.444Z,38.14
2024-02-24T20:03:49.002Z,37.77
2024-02-24T20:08:53.014Z,38.53
2024-02-24T20:13:58.241Z,38.31
2024-02-24T20:19:01.984Z,38.08
2024-02-24T20:24:06.208Z,38.26
2024-02-24T20:29:11.223Z,38.13
2024-02-24T20:34:15.134Z,38.56
2024-02-24T20:39:18.837Z,38.28
2024-02-24T20:44:24.327Z,38.00
2024-02-24T20:49:28.656Z,38.86
2024-02-24T20:54:36.512Z,38.18
2024-02-24T20:59:41.551Z,37.94
2024-02-24T21:04:45.139Z,38.05
2024-02-24T21:09:48.956Z,38.02
2024-02-24T21:14:53.987Z,38.00
2024-02-24T21:20:04.364Z,38.18
2024-02-24T21:25:10.980Z,38.56
2024-02-24T21:30:16.706Z,38.50
2024-02-24T21:35:21.113Z,39.50
2024-02-24T21:40:24.835Z,38.27
2024-02-24T21:45:29.908Z,38.67
2024-02-24T21:50:33.739Z,38.64
2024-02-24T21:55:37.535Z,38.88
2024-02-24T22:00:42.510Z,39.15
2024-02-24T22:05:46.361Z,38.70
2024-02-24T22:10:50.167Z,38.42
2024-02-24T22:15:57.099Z,37.89
2024-02-24T22:21:01.314Z,38.18
2024-02-24T22:26:05.176Z,39.45
2024-02-24T22:31:10.221Z,39.02
2024-02-24T22:36:14.285Z,39.15
2024-02-24T22:41:19.034Z,38.61
2024-02-24T22:46:26.962Z,39.40
2024-02-24T22:51:30.918Z,39.15
2024-02-24T22:56:36.234Z,38.73
2024-02-24T23:01:45.624Z,38.50
2024-02-24T23:06:49.892Z,38.17
2024-02-24T23:11:53.707Z,38.60
2024-02-24T23:16:58.819Z,39.13
2024-02-24T23:22:02.539Z,39.00
2024-02-24T23:27:06.741Z,39.18
2024-02-24T23:32:12.140Z,39.06
2024-02-24T23:37:16.821Z,39.13
2024-02-24T23:42:20.870Z,40.27
2024-02-24T23:47:26.032Z,39.64
2024-02-24T23:52:29.785Z,39.67
2024-02-24T23:57:35.591Z,39.91
